Time;durP1;ratioP1;P1;durP2;ratioP2;P2;SDS_P1;SDS_P2;PMS_P1;PMS_P2;Temp;Humidity;BMP_temperature;BMP_pressure;BME280_temperature;BME280_humidity;BME280_pressure;Samples;Min_cycle;Max_cycle;Signal;HPM_P1;HPM_P2
2021/10/15 00:00:49;;;;;;;;;;;;;;;;;;2114099;28;19924;-57
2021/10/15 00:01:50;;;;;;;;;;;;;;;;;;2114022;28;19977;-55
2021/10/15 00:02:51;;;;;;;;;;;;;;;;;;2114016;28;20399;-57
2021/10/15 00:03:52;;;;;;;;;;;;;;;;;;2113981;28;20437;-56
2021/10/15 00:04:52;;;;;;;;;;;;;;;;;;2114246;28;20243;-56
2021/10/15 00:05:53;;;;;;;;;;;;;;;;;;2114143;28;19923;-57
2021/10/15 00:06:54;;;;;;;;;;;;;;;;;;2114145;28;19938;-55
2021/10/15 00:07:55;;;;;;;;;;;;;;;;;;2114000;28;19928;-57
2021/10/15 00:08:56;;;;;;;;;;;;;;;;;;2114025;28;20436;-56
2021/10/15 00:09:56;;;;;;;;;;;;;;;;;;2114069;28;19923;-56
2021/10/15 00:10:57;;;;;;;;;;;;;;;;;;2114209;28;20415;-56
2021/10/15 00:11:58;;;;;;;;;;;;;;;;;;2113883;28;19924;-56
2021/10/15 00:12:59;;;;;;;;;;;;;;;;;;2114078;28;20010;-57
2021/10/15 00:14:00;;;;;;;;;;;;;;;;;;2113959;28;20293;-57
2021/10/15 00:15:01;;;;;;;;;;;;;;;;;;2114025;28;20288;-57
2021/10/15 00:16:01;;;;;;;;;;;;;;;;;;2113978;28;19928;-56
2021/10/15 00:17:02;;;;;;;;;;;;;;;;;;2114113;28;19966;-56
2021/10/15 00:18:03;;;;;;;;;;;;;;;;;;2113868;28;20342;-55
2021/10/15 00:19:04;;;;;;;;;;;;;;;;;;2114199;28;19932;-57
2021/10/15 00:20:05;;;;;;;;;;;;;;;;;;2114156;28;19924;-57
2021/10/15 00:21:05;;;;;;;;;;;;;;;;;;2113994;28;19971;-56
2021/10/15 00:22:06;;;;;;;;;;;;;;;;;;2114012;28;20284;-56
2021/10/15 00:23:07;;;;;;;;;;;;;;;;;;2113956;28;20386;-57
2021/10/15 00:24:08;;;;;;;;;;;;;;;;;;2113960;28;19924;-56
2021/10/15 00:25:09;;;;;;;;;;;;;;;;;;2113946;28;19924;-56
2021/10/15 00:26:09;;;;;;;;;;;;;;;;;;2113767;28;20369;-57
2021/10/15 00:27:10;;;;;;;;;;;;;;;;;;2113798;28;20392;-56
2021/10/15 00:28:11;;;;;;;;;;;;;;;;;;2114034;28;19966;-57
2021/10/15 00:29:12;;;;;;;;;;;;;;;;;;2113813;28;20368;-57
2021/10/15 00:30:13;;;;;;;;;;;;;;;;;;2113845;28;19924;-54
2021/10/15 00:31:14;;;;;;;;;;;;;;;;;;2113794;28;19924;-56
2021/10/15 00:32:15;;;;;;;;;;;;;;;;;;2113933;28;20407;-57
2021/10/15 00:33:16;;;;;;;;;;;;;;;;;;2113916;28;19931;-56
2021/10/15 00:34:16;;;;;;;;;;;;;;;;;;2114025;28;20006;-56
2021/10/15 00:35:17;;;;;;;;;;;;;;;;;;2113814;28;19924;-57
2021/10/15 00:36:18;;;;;;;;;;;;;;;;;;2113832;28;19924;-57
2021/10/15 00:37:19;;;;;;;;;;;;;;;;;;2114293;28;19931;-56
2021/10/15 00:38:20;;;;;;;;;;;;;;;;;;2115498;28;20015;-54
2021/10/15 00:39:21;;;;;;;;;;;;;;;;;;2115102;28;19931;-56
2021/10/15 00:40:21;;;;;;;;;;;;;;;;;;2115363;28;20316;-57
2021/10/15 00:41:22;;;;;;;;;;;;;;;;;;2115159;28;20304;-56
2021/10/15 00:42:23;;;;;;;;;;;;;;;;;;2115438;28;19934;-56
2021/10/15 00:43:25;;;;;;;;;;;;;;;;;;2115378;28;19930;-56
2021/10/15 00:44:25;;;;;;;;;;;;;;;;;;2115371;28;19924;-56
2021/10/15 00:45:26;;;;;;;;;;;;;;;;;;2115033;28;19951;-56
2021/10/15 00:46:27;;;;;;;;;;;;;;;;;;2115477;28;19924;-56
2021/10/15 00:47:28;;;;;;;;;;;;;;;;;;2115303;28;19923;-56
2021/10/15 00:48:29;;;;;;;;;;;;;;;;;;2115341;28;19923;-55
2021/10/15 00:49:30;;;;;;;;;;;;;;;;;;2115229;28;19924;-56
2021/10/15 00:50:30;;;;;;;;;;;;;;;;;;2115140;28;19924;-56
2021/10/15 00:51:31;;;;;;;;;;;;;;;;;;2115400;28;19928;-54
2021/10/15 00:52:32;;;;;;;;;;;;;;;;;;2115070;28;20468;-55
2021/10/15 00:53:33;;;;;;;;;;;;;;;;;;2115171;28;19931;-54
2021/10/15 00:54:34;;;;;;;;;;;;;;;;;;2115153;28;20383;-54
2021/10/15 00:55:35;;;;;;;;;;;;;;;;;;2115117;28;20300;-56
2021/10/15 00:56:35;;;;;;;;;;;;;;;;;;2115215;28;19923;-56
2021/10/15 00:57:36;;;;;;;;;;;;;;;;;;2115270;28;19923;-55
2021/10/15 00:58:37;;;;;;;;;;;;;;;;;;2115237;28;20322;-55
2021/10/15 00:59:38;;;;;;;;;;;;;;;;;;2115103;28;19973;-56
2021/10/15 01:00:39;;;;;;;;;;;;;;;;;;2115032;28;19924;-53
2021/10/15 01:01:40;;;;;;;;;;;;;;;;;;2115194;28;19923;-53
2021/10/15 01:02:40;;;;;;;;;;;;;;;;;;2115283;28;20172;-57
2021/10/15 01:03:42;;;;;;;;;;;;;;;;;;2115090;28;19935;-56
2021/10/15 01:04:42;;;;;;;;;;;;;;;;;;2115298;28;19924;-56
2021/10/15 01:05:43;;;;;;;;;;;;;;;;;;2115175;28;20285;-55
2021/10/15 01:06:44;;;;;;;;;;;;;;;;;;2114973;28;19923;-56
2021/10/15 01:07:45;;;;;;;;;;;;;;;;;;2115060;28;20377;-56
2021/10/15 01:08:45;;;;;;;;;;;;;;;;;;2115307;28;20107;-53
2021/10/15 01:09:46;;;;;;;;;;;;;;;;;;2115185;28;19953;-56
2021/10/15 01:10:47;;;;;;;;;;;;;;;;;;2115290;28;19923;-55
2021/10/15 01:11:48;;;;;;;;;;;;;;;;;;2115149;28;19924;-56
2021/10/15 01:12:49;;;;;;;;;;;;;;;;;;2115208;28;19934;-55
2021/10/15 01:13:50;;;;;;;;;;;;;;;;;;2115016;28;19923;-55
2021/10/15 01:14:50;;;;;;;;;;;;;;;;;;2115201;28;20403;-54
2021/10/15 01:15:51;;;;;;;;;;;;;;;;;;2115049;28;20728;-55
2021/10/15 01:16:52;;;;;;;;;;;;;;;;;;2115047;28;19928;-53
2021/10/15 01:17:53;;;;;;;;;;;;;;;;;;2115027;28;19931;-55
2021/10/15 01:18:54;;;;;;;;;;;;;;;;;;2115329;28;20316;-55
2021/10/15 01:19:54;;;;;;;;;;;;;;;;;;2114947;28;20307;-56
2021/10/15 01:20:55;;;;;;;;;;;;;;;;;;2115213;28;19924;-55
2021/10/15 01:21:56;;;;;;;;;;;;;;;;;;2114860;28;19923;-53
2021/10/15 01:22:57;;;;;;;;;;;;;;;;;;2115350;28;19955;-55
2021/10/15 01:23:58;;;;;;;;;;;;;;;;;;2115016;28;20284;-55
2021/10/15 01:24:59;;;;;;;;;;;;;;;;;;2115315;28;19923;-55
2021/10/15 01:25:59;;;;;;;;;;;;;;;;;;2114794;28;19930;-55
2021/10/15 01:27:00;;;;;;;;;;;;;;;;;;2115199;28;19923;-55
2021/10/15 01:28:01;;;;;;;;;;;;;;;;;;2114963;28;19928;-53
2021/10/15 01:29:02;;;;;;;;;;;;;;;;;;2115272;28;19935;-55
2021/10/15 01:30:02;;;;;;;;;;;;;;;;;;2114846;28;19923;-56
2021/10/15 01:31:03;;;;;;;;;;;;;;;;;;2115017;28;20300;-55
2021/10/15 01:32:04;;;;;;;;;;;;;;;;;;2114976;28;20459;-55
2021/10/15 01:33:05;;;;;;;;;;;;;;;;;;2115123;28;19924;-56
2021/10/15 01:34:06;;;;;;;;;;;;;;;;;;2114862;28;19923;-55
2021/10/15 01:35:07;;;;;;;;;;;;;;;;;;2115105;28;20284;-55
2021/10/15 01:36:07;;;;;;;;;;;;;;;;;;2114915;28;19924;-55
2021/10/15 01:37:08;;;;;;;;;;;;;;;;;;2115108;28;20057;-55
2021/10/15 01:38:09;;;;;;;;;;;;;;;;;;2114971;28;19924;-54
2021/10/15 01:39:10;;;;;;;;;;;;;;;;;;2115013;28;19931;-56
2021/10/15 01:40:11;;;;;;;;;;;;;;;;;;2114800;28;20443;-52
2021/10/15 01:41:11;;;;;;;;;;;;;;;;;;2115142;28;20331;-56
2021/10/15 01:43:28;;;;;;;;;;;;;;;;;;2114890;28;19980;-52
2021/10/15 01:44:29;;;;;;;;;;;;;;;;;;2114946;28;19927;-55
2021/10/15 01:45:30;;;;;;;;;;;;;;;;;;2115109;28;19923;-55
2021/10/15 01:46:30;;;;;;;;;;;;;;;;;;2114824;28;19950;-53
2021/10/15 01:47:31;;;;;;;;;;;;;;;;;;2115035;28;19923;-55
2021/10/15 01:48:32;;;;;;;;;;;;;;;;;;2114378;28;20335;-53
2021/10/15 01:49:33;;;;;;;;;;;;;;;;;;2114148;28;19931;-55
2021/10/15 01:50:34;;;;;;;;;;;;;;;;;;2114684;28;19923;-53
2021/10/15 01:51:35;;;;;;;;;;;;;;;;;;2115051;28;19931;-55
2021/10/15 01:52:37;;;;;;;;;;;;;;;;;;2114862;28;20353;-55
2021/10/15 01:53:40;;;;;;;;;;;;;;;;;;2114833;28;20469;-54
2021/10/15 01:54:41;;;;;;;;;;;;;;;;;;2114802;28;20018;-53
2021/10/15 01:55:42;;;;;;;;;;;;;;;;;;2114748;28;19976;-55
2021/10/15 01:56:43;;;;;;;;;;;;;;;;;;2114926;28;19924;-55
2021/10/15 01:57:44;;;;;;;;;;;;;;;;;;2114720;28;19923;-54
2021/10/15 01:58:44;;;;;;;;;;;;;;;;;;2114893;28;20021;-53
2021/10/15 01:59:45;;;;;;;;;;;;;;;;;;2114878;28;19924;-53
2021/10/15 02:00:46;;;;;;;;;;;;;;;;;;2114845;28;20379;-55
2021/10/15 02:01:47;;;;;;;;;;;;;;;;;;2114720;28;20373;-53
2021/10/15 02:02:48;;;;;;;;;;;;;;;;;;2114814;28;20281;-53
2021/10/15 02:03:49;;;;;;;;;;;;;;;;;;2114676;28;19954;-54
2021/10/15 02:04:49;;;;;;;;;;;;;;;;;;2114957;28;19931;-53
2021/10/15 02:05:50;;;;;;;;;;;;;;;;;;2114867;28;20388;-53
2021/10/15 02:06:51;;;;;;;;;;;;;;;;;;2114692;28;19940;-55
2021/10/15 02:07:52;;;;;;;;;;;;;;;;;;2114534;28;19934;-55
2021/10/15 02:08:53;;;;;;;;;;;;;;;;;;2114779;28;20117;-56
2021/10/15 02:09:54;;;;;;;;;;;;;;;;;;2114707;28;19924;-55
2021/10/15 02:10:54;;;;;;;;;;;;;;;;;;2114795;28;19923;-55
2021/10/15 02:11:55;;;;;;;;;;;;;;;;;;2114719;28;20319;-55
2021/10/15 02:12:56;;;;;;;;;;;;;;;;;;2114661;28;19924;-55
2021/10/15 02:13:57;;;;;;;;;;;;;;;;;;2114600;28;19931;-55
2021/10/15 02:14:57;;;;;;;;;;;;;;;;;;2114685;28;20309;-53
2021/10/15 02:15:59;;;;;;;;;;;;;;;;;;2114570;28;19924;-55
2021/10/15 02:17:00;;;;;;;;;;;;;;;;;;2114613;28;20373;-55
2021/10/15 02:18:01;;;;;;;;;;;;;;;;;;2114524;28;19924;-55
2021/10/15 02:19:02;;;;;;;;;;;;;;;;;;2114771;28;20368;-53
2021/10/15 02:20:03;;;;;;;;;;;;;;;;;;2114632;28;20334;-53
2021/10/15 02:21:03;;;;;;;;;;;;;;;;;;2114619;28;19924;-53
2021/10/15 02:22:04;;;;;;;;;;;;;;;;;;2114652;28;19924;-55
2021/10/15 02:23:05;;;;;;;;;;;;;;;;;;2114579;28;20287;-53
2021/10/15 02:24:06;;;;;;;;;;;;;;;;;;2114873;28;19924;-55
2021/10/15 02:25:06;;;;;;;;;;;;;;;;;;2114526;28;20297;-55
2021/10/15 02:26:07;;;;;;;;;;;;;;;;;;2114691;28;20289;-55
2021/10/15 02:27:08;;;;;;;;;;;;;;;;;;2114373;28;19931;-54
2021/10/15 02:28:09;;;;;;;;;;;;;;;;;;2114630;28;19930;-55
2021/10/15 02:29:10;;;;;;;;;;;;;;;;;;2114531;28;20377;-55
2021/10/15 02:30:11;;;;;;;;;;;;;;;;;;2114802;28;19996;-55
2021/10/15 02:31:11;;;;;;;;;;;;;;;;;;2114339;28;20388;-53
2021/10/15 02:32:12;;;;;;;;;;;;;;;;;;2114637;28;19928;-55
2021/10/15 02:33:13;;;;;;;;;;;;;;;;;;2114506;28;20368;-55
2021/10/15 02:34:14;;;;;;;;;;;;;;;;;;2114749;28;20425;-54
2021/10/15 02:35:14;;;;;;;;;;;;;;;;;;2114621;28;19923;-55
2021/10/15 02:36:15;;;;;;;;;;;;;;;;;;2114581;28;20273;-53
2021/10/15 02:37:16;;;;;;;;;;;;;;;;;;2114472;28;19930;-56
2021/10/15 02:38:17;;;;;;;;;;;;;;;;;;2114667;28;19928;-56
2021/10/15 02:39:18;;;;;;;;;;;;;;;;;;2114592;28;19931;-53
2021/10/15 02:40:19;;;;;;;;;;;;;;;;;;2114554;28;20391;-55
2021/10/15 02:41:20;;;;;;;;;;;;;;;;;;2114509;28;19931;-55
2021/10/15 02:42:21;;;;;;;;;;;;;;;;;;2114630;28;19924;-55
2021/10/15 02:43:21;;;;;;;;;;;;;;;;;;2114646;28;19950;-55
2021/10/15 02:44:22;;;;;;;;;;;;;;;;;;2114379;28;19951;-56
2021/10/15 02:45:23;;;;;;;;;;;;;;;;;;2114339;28;19928;-53
2021/10/15 02:46:24;;;;;;;;;;;;;;;;;;2114517;28;19924;-55
2021/10/15 02:47:24;;;;;;;;;;;;;;;;;;2114487;28;19972;-56
2021/10/15 02:48:25;;;;;;;;;;;;;;;;;;2114450;28;20580;-55
2021/10/15 02:49:26;;;;;;;;;;;;;;;;;;2114566;28;19924;-55
2021/10/15 02:50:27;;;;;;;;;;;;;;;;;;2114558;28;19924;-55
2021/10/15 02:51:28;;;;;;;;;;;;;;;;;;2114786;28;19946;-55
2021/10/15 02:52:29;;;;;;;;;;;;;;;;;;2114456;28;19924;-54
2021/10/15 02:53:29;;;;;;;;;;;;;;;;;;2114582;28;19972;-55
2021/10/15 02:54:30;;;;;;;;;;;;;;;;;;2114416;28;19928;-55
2021/10/15 02:55:31;;;;;;;;;;;;;;;;;;2114519;28;19930;-55
2021/10/15 02:56:32;;;;;;;;;;;;;;;;;;2114415;28;19928;-55
2021/10/15 02:57:32;;;;;;;;;;;;;;;;;;2114414;28;19932;-55
2021/10/15 02:58:33;;;;;;;;;;;;;;;;;;2114311;28;19924;-53
2021/10/15 02:59:34;;;;;;;;;;;;;;;;;;2114500;28;19923;-55
2021/10/15 03:00:35;;;;;;;;;;;;;;;;;;2114061;28;19972;-53
2021/10/15 03:01:36;;;;;;;;;;;;;;;;;;2114469;28;19972;-53
2021/10/15 03:02:37;;;;;;;;;;;;;;;;;;2114176;28;19924;-55
2021/10/15 03:03:37;;;;;;;;;;;;;;;;;;2114490;28;20422;-53
2021/10/15 03:04:38;;;;;;;;;;;;;;;;;;2114382;28;19928;-56
2021/10/15 03:05:39;;;;;;;;;;;;;;;;;;2114492;28;19931;-55
2021/10/15 03:06:40;;;;;;;;;;;;;;;;;;2114280;28;19923;-55
2021/10/15 03:07:41;;;;;;;;;;;;;;;;;;2114456;28;20500;-56
2021/10/15 03:08:42;;;;;;;;;;;;;;;;;;2114448;28;20447;-55
2021/10/15 03:09:42;;;;;;;;;;;;;;;;;;2114412;28;19924;-55
2021/10/15 03:10:43;;;;;;;;;;;;;;;;;;2114252;28;20018;-55
2021/10/15 03:11:44;;;;;;;;;;;;;;;;;;2114489;28;20334;-56
2021/10/15 03:12:45;;;;;;;;;;;;;;;;;;2114224;28;20380;-53
2021/10/15 03:13:45;;;;;;;;;;;;;;;;;;2114460;28;19924;-56
2021/10/15 03:14:46;;;;;;;;;;;;;;;;;;2114325;28;19931;-55
2021/10/15 03:15:47;;;;;;;;;;;;;;;;;;2114343;28;20292;-56
2021/10/15 03:16:48;;;;;;;;;;;;;;;;;;2114210;28;19923;-55
2021/10/15 03:17:49;;;;;;;;;;;;;;;;;;2114469;28;20303;-56
2021/10/15 03:18:50;;;;;;;;;;;;;;;;;;2114289;28;19980;-55
2021/10/15 03:19:51;;;;;;;;;;;;;;;;;;2114391;28;19928;-56
2021/10/15 03:20:51;;;;;;;;;;;;;;;;;;2114349;28;19930;-55
2021/10/15 03:21:52;;;;;;;;;;;;;;;;;;2114286;28;19934;-55
2021/10/15 03:22:53;;;;;;;;;;;;;;;;;;2114238;28;19931;-56
2021/10/15 03:23:54;;;;;;;;;;;;;;;;;;2114329;28;19924;-56
2021/10/15 03:24:56;;;;;;;;;;;;;;;;;;2114192;28;19968;-55
2021/10/15 03:25:56;;;;;;;;;;;;;;;;;;2114123;28;20419;-54
2021/10/15 03:26:57;;;;;;;;;;;;;;;;;;2114334;28;20277;-53
2021/10/15 03:27:58;;;;;;;;;;;;;;;;;;2114139;28;20373;-55
2021/10/15 03:28:59;;;;;;;;;;;;;;;;;;2114474;28;19949;-53
2021/10/15 03:30:00;;;;;;;;;;;;;;;;;;2114137;28;19924;-56
2021/10/15 03:31:01;;;;;;;;;;;;;;;;;;2114129;28;19924;-53
2021/10/15 03:32:02;;;;;;;;;;;;;;;;;;2114243;28;19924;-54
2021/10/15 03:33:05;;;;;;;;;;;;;;;;;;2114230;28;20025;-54
2021/10/15 03:34:06;;;;;;;;;;;;;;;;;;2114236;28;20010;-54
2021/10/15 03:35:07;;;;;;;;;;;;;;;;;;2114273;28;20461;-55
2021/10/15 03:36:08;;;;;;;;;;;;;;;;;;2114265;28;19930;-54
2021/10/15 03:37:08;;;;;;;;;;;;;;;;;;2114134;28;19924;-53
2021/10/15 03:38:09;;;;;;;;;;;;;;;;;;2114247;28;19993;-54
2021/10/15 03:39:11;;;;;;;;;;;;;;;;;;2114143;28;19930;-54
2021/10/15 03:40:12;;;;;;;;;;;;;;;;;;2114353;28;19959;-56
2021/10/15 03:41:12;;;;;;;;;;;;;;;;;;2114045;28;19930;-56
2021/10/15 03:42:13;;;;;;;;;;;;;;;;;;2114321;28;19930;-55
2021/10/15 03:43:14;;;;;;;;;;;;;;;;;;2114207;28;19924;-55
2021/10/15 03:44:15;;;;;;;;;;;;;;;;;;2114129;28;19931;-55
2021/10/15 03:45:15;;;;;;;;;;;;;;;;;;2114122;28;19924;-53
2021/10/15 03:46:16;;;;;;;;;;;;;;;;;;2114057;28;19931;-55
2021/10/15 03:47:17;;;;;;;;;;;;;;;;;;2114109;28;20238;-55
2021/10/15 03:48:18;;;;;;;;;;;;;;;;;;2114211;28;19930;-55
2021/10/15 03:49:19;;;;;;;;;;;;;;;;;;2114012;28;19969;-56
2021/10/15 03:50:20;;;;;;;;;;;;;;;;;;2114240;28;19923;-56
2021/10/15 03:51:21;;;;;;;;;;;;;;;;;;2113978;28;19924;-55
2021/10/15 03:52:21;;;;;;;;;;;;;;;;;;2114174;28;19927;-55
2021/10/15 03:53:22;;;;;;;;;;;;;;;;;;2113955;28;20019;-56
2021/10/15 03:54:23;;;;;;;;;;;;;;;;;;2114113;28;19938;-53
2021/10/15 03:55:26;;;;;;;;;;;;;;;;;;2113967;28;19934;-53
2021/10/15 03:56:26;;;;;;;;;;;;;;;;;;2114303;28;19962;-53
2021/10/15 03:57:28;;;;;;;;;;;;;;;;;;2113833;28;19984;-54
2021/10/15 03:58:29;;;;;;;;;;;;;;;;;;2114389;28;20002;-54
2021/10/15 03:59:30;;;;;;;;;;;;;;;;;;2113887;28;19931;-54
2021/10/15 04:00:30;;;;;;;;;;;;;;;;;;2114296;28;20132;-55
2021/10/15 04:01:31;;;;;;;;;;;;;;;;;;2113972;28;19928;-56
2021/10/15 04:02:32;;;;;;;;;;;;;;;;;;2114488;28;20010;-56
2021/10/15 04:03:33;;;;;;;;;;;;;;;;;;2113807;28;19946;-56
2021/10/15 04:04:34;;;;;;;;;;;;;;;;;;2114383;28;19931;-55
2021/10/15 04:05:35;;;;;;;;;;;;;;;;;;2113752;28;19939;-55
2021/10/15 04:06:35;;;;;;;;;;;;;;;;;;2114023;28;19972;-55
2021/10/15 04:07:36;;;;;;;;;;;;;;;;;;2114085;28;19923;-56
2021/10/15 04:08:37;;;;;;;;;;;;;;;;;;2113997;28;20307;-55
2021/10/15 04:09:38;;;;;;;;;;;;;;;;;;2113849;28;19930;-56
2021/10/15 04:10:39;;;;;;;;;;;;;;;;;;2114111;28;19930;-56
2021/10/15 04:11:40;;;;;;;;;;;;;;;;;;2113985;28;19923;-55
2021/10/15 04:12:40;;;;;;;;;;;;;;;;;;2114955;28;19939;-55
2021/10/15 04:13:41;;;;;;;;;;;;;;;;;;2115428;28;20018;-54
2021/10/15 04:14:42;;;;;;;;;;;;;;;;;;2115507;28;19936;-55
2021/10/15 04:15:43;;;;;;;;;;;;;;;;;;2115470;28;20391;-56
2021/10/15 04:16:43;;;;;;;;;;;;;;;;;;2115567;28;19924;-55
2021/10/15 04:17:44;;;;;;;;;;;;;;;;;;2115502;28;19981;-55
2021/10/15 04:18:45;;;;;;;;;;;;;;;;;;2115456;28;19923;-55
2021/10/15 04:19:46;;;;;;;;;;;;;;;;;;2115457;28;19924;-54
2021/10/15 04:20:47;;;;;;;;;;;;;;;;;;2115346;28;19924;-55
2021/10/15 04:21:48;;;;;;;;;;;;;;;;;;2115355;28;19927;-54
2021/10/15 04:22:48;;;;;;;;;;;;;;;;;;2115367;28;20380;-54
2021/10/15 04:23:49;;;;;;;;;;;;;;;;;;2115502;28;19927;-54
2021/10/15 04:24:50;;;;;;;;;;;;;;;;;;2115504;28;19950;-54
2021/10/15 04:25:51;;;;;;;;;;;;;;;;;;2115572;28;20281;-55
2021/10/15 04:26:51;;;;;;;;;;;;;;;;;;2115339;28;19997;-54
2021/10/15 04:27:52;;;;;;;;;;;;;;;;;;2115390;28;19935;-54
2021/10/15 04:28:53;;;;;;;;;;;;;;;;;;2115311;28;19931;-54
2021/10/15 04:29:54;;;;;;;;;;;;;;;;;;2115535;28;19924;-55
2021/10/15 04:30:55;;;;;;;;;;;;;;;;;;2115174;28;20307;-54
2021/10/15 04:31:56;;;;;;;;;;;;;;;;;;2115413;28;19974;-52
2021/10/15 04:32:56;;;;;;;;;;;;;;;;;;2115376;28;19924;-54
2021/10/15 04:33:57;;;;;;;;;;;;;;;;;;2115433;28;19928;-54
2021/10/15 04:34:58;;;;;;;;;;;;;;;;;;2115492;28;20383;-54
2021/10/15 04:35:59;;;;;;;;;;;;;;;;;;2115256;28;20300;-55
2021/10/15 04:37:00;;;;;;;;;;;;;;;;;;2115408;28;20529;-54
2021/10/15 04:38:01;;;;;;;;;;;;;;;;;;2115518;28;19923;-53
2021/10/15 04:39:01;;;;;;;;;;;;;;;;;;2115398;28;19924;-54
2021/10/15 04:40:02;;;;;;;;;;;;;;;;;;2115119;28;19935;-54
2021/10/15 04:41:03;;;;;;;;;;;;;;;;;;2115431;28;20342;-54
2021/10/15 04:42:04;;;;;;;;;;;;;;;;;;2115163;28;19924;-54
2021/10/15 04:43:05;;;;;;;;;;;;;;;;;;2115504;28;20015;-54
2021/10/15 04:44:06;;;;;;;;;;;;;;;;;;2115233;28;19955;-54
2021/10/15 04:45:06;;;;;;;;;;;;;;;;;;2115362;28;19924;-54
2021/10/15 04:46:07;;;;;;;;;;;;;;;;;;2115011;28;20149;-53
2021/10/15 04:47:08;;;;;;;;;;;;;;;;;;2115623;28;20353;-55
2021/10/15 04:48:09;;;;;;;;;;;;;;;;;;2115195;28;19924;-57
2021/10/15 04:49:10;;;;;;;;;;;;;;;;;;2115248;28;19930;-55
2021/10/15 04:50:11;;;;;;;;;;;;;;;;;;2115312;28;19923;-56
2021/10/15 04:51:11;;;;;;;;;;;;;;;;;;2115394;28;19924;-55
2021/10/15 04:52:12;;;;;;;;;;;;;;;;;;2115292;28;19928;-56
2021/10/15 04:53:13;;;;;;;;;;;;;;;;;;2115377;28;20281;-56
2021/10/15 04:54:14;;;;;;;;;;;;;;;;;;2115358;28;20330;-54
2021/10/15 04:55:15;;;;;;;;;;;;;;;;;;2115376;28;19930;-54
2021/10/15 04:56:15;;;;;;;;;;;;;;;;;;2115121;28;19955;-54
2021/10/15 04:57:16;;;;;;;;;;;;;;;;;;2115263;28;19923;-54
2021/10/15 04:58:17;;;;;;;;;;;;;;;;;;2115194;28;19924;-55
2021/10/15 04:59:18;;;;;;;;;;;;;;;;;;2115257;28;19924;-55
2021/10/15 05:00:20;;;;;;;;;;;;;;;;;;2115323;28;19972;-55
2021/10/15 05:01:22;;;;;;;;;;;;;;;;;;2115391;28;19931;-54
2021/10/15 05:02:23;;;;;;;;;;;;;;;;;;2115169;28;20409;-54
2021/10/15 05:03:24;;;;;;;;;;;;;;;;;;2115365;28;19930;-54
2021/10/15 05:04:25;;;;;;;;;;;;;;;;;;2115153;28;19985;-54
2021/10/15 05:05:27;;;;;;;;;;;;;;;;;;2115279;28;20190;-53
2021/10/15 05:06:28;;;;;;;;;;;;;;;;;;2115066;28;19970;-54
2021/10/15 05:07:29;;;;;;;;;;;;;;;;;;2115304;28;19927;-54
2021/10/15 05:08:32;;;;;;;;;;;;;;;;;;2115241;28;20018;-54
2021/10/15 05:09:33;;;;;;;;;;;;;;;;;;2115280;28;20006;-54
2021/10/15 05:10:34;;;;;;;;;;;;;;;;;;2114985;28;20402;-53
2021/10/15 05:11:34;;;;;;;;;;;;;;;;;;2115124;28;19973;-54
2021/10/15 05:12:35;;;;;;;;;;;;;;;;;;2115116;28;20403;-53
2021/10/15 05:13:36;;;;;;;;;;;;;;;;;;2115074;28;19924;-54
2021/10/15 05:14:37;;;;;;;;;;;;;;;;;;2115121;28;20377;-54
2021/10/15 05:15:38;;;;;;;;;;;;;;;;;;2114888;28;19924;-54
2021/10/15 05:16:39;;;;;;;;;;;;;;;;;;2115168;28;19924;-54
2021/10/15 05:17:40;;;;;;;;;;;;;;;;;;2115032;28;20368;-55
2021/10/15 05:18:40;;;;;;;;;;;;;;;;;;2114956;28;19924;-55
2021/10/15 05:19:41;;;;;;;;;;;;;;;;;;2114989;28;19969;-54
2021/10/15 05:20:42;;;;;;;;;;;;;;;;;;2114954;28;20148;-55
2021/10/15 05:21:43;;;;;;;;;;;;;;;;;;2115060;28;20376;-55
2021/10/15 05:22:44;;;;;;;;;;;;;;;;;;2115249;28;19924;-55
2021/10/15 05:23:44;;;;;;;;;;;;;;;;;;2114117;28;19924;-55
2021/10/15 05:24:45;;;;;;;;;;;;;;;;;;2114815;28;19931;-55
2021/10/15 05:25:46;;;;;;;;;;;;;;;;;;2114812;28;19969;-55
2021/10/15 05:26:47;;;;;;;;;;;;;;;;;;2115050;28;19931;-56
2021/10/15 05:27:48;;;;;;;;;;;;;;;;;;2114947;28;20422;-56
2021/10/15 05:28:48;;;;;;;;;;;;;;;;;;2115067;28;19931;-56
2021/10/15 05:29:49;;;;;;;;;;;;;;;;;;2114969;28;19956;-56
2021/10/15 05:30:50;;;;;;;;;;;;;;;;;;2115060;28;19924;-56
2021/10/15 05:31:51;;;;;;;;;;;;;;;;;;2115020;28;19930;-56
2021/10/15 05:32:52;;;;;;;;;;;;;;;;;;2114980;28;20303;-56
2021/10/15 05:33:53;;;;;;;;;;;;;;;;;;2114849;28;19928;-56
2021/10/15 05:34:54;;;;;;;;;;;;;;;;;;2115155;28;20308;-56
2021/10/15 05:35:55;;;;;;;;;;;;;;;;;;2114820;28;19924;-56
2021/10/15 05:36:56;;;;;;;;;;;;;;;;;;2115128;28;20007;-56
2021/10/15 05:37:57;;;;;;;;;;;;;;;;;;2114951;28;19924;-56
2021/10/15 05:38:58;;;;;;;;;;;;;;;;;;2115148;28;19931;-57
2021/10/15 05:39:58;;;;;;;;;;;;;;;;;;2114971;28;19930;-57
2021/10/15 05:40:59;;;;;;;;;;;;;;;;;;2114866;28;19931;-56
2021/10/15 05:42:00;;;;;;;;;;;;;;;;;;2114887;28;19923;-57
2021/10/15 05:43:01;;;;;;;;;;;;;;;;;;2114784;28;19924;-56
2021/10/15 05:44:02;;;;;;;;;;;;;;;;;;2114861;28;19967;-57
2021/10/15 05:45:02;;;;;;;;;;;;;;;;;;2114847;28;19927;-57
2021/10/15 05:46:03;;;;;;;;;;;;;;;;;;2114839;28;19973;-56
2021/10/15 05:47:04;;;;;;;;;;;;;;;;;;2114749;28;20064;-57
2021/10/15 05:48:05;;;;;;;;;;;;;;;;;;2114858;28;20380;-57
2021/10/15 05:49:07;;;;;;;;;;;;;;;;;;2114723;28;19924;-57
2021/10/15 05:50:09;;;;;;;;;;;;;;;;;;2115044;28;20056;-57
2021/10/15 05:51:10;;;;;;;;;;;;;;;;;;2114796;28;20524;-57
2021/10/15 05:52:12;;;;;;;;;;;;;;;;;;2114780;28;19973;-57
2021/10/15 05:53:16;;;;;;;;;;;;;;;;;;2114997;28;20491;-57
2021/10/15 05:54:24;;;;;;;;;;;;;;;;;;2114864;28;20010;-57
2021/10/15 05:55:32;;;;;;;;;;;;;;;;;;2114757;28;20038;-57
2021/10/15 05:59:22;;;;;;;;;;;;;;;;;;2115004;28;20006;-57
2021/10/15 06:00:23;;;;;;;;;;;;;;;;;;2114753;28;19928;-57
2021/10/15 06:01:25;;;;;;;;;;;;;;;;;;2114776;28;19924;-57
2021/10/15 06:02:31;;;;;;;;;;;;;;;;;;2114748;28;19972;-57
2021/10/15 06:03:33;;;;;;;;;;;;;;;;;;2114978;28;19934;-57
2021/10/15 06:14:19;;;;;;;;;;;;;;;;;;2114713;28;19971;-57
2021/10/15 06:15:20;;;;;;;;;;;;;;;;;;2114910;28;20014;-57
2021/10/15 06:16:23;;;;;;;;;;;;;;;;;;2114506;28;20316;-57
2021/10/15 06:17:23;;;;;;;;;;;;;;;;;;2114789;28;19988;-57
2021/10/15 06:18:24;;;;;;;;;;;;;;;;;;2114587;28;20018;-57
2021/10/15 06:19:27;;;;;;;;;;;;;;;;;;2114756;28;19930;-57
2021/10/15 06:20:28;;;;;;;;;;;;;;;;;;2114576;28;20059;-58
2021/10/15 06:21:29;;;;;;;;;;;;;;;;;;2114809;28;19924;-57
2021/10/15 06:22:30;;;;;;;;;;;;;;;;;;2114730;28;19924;-57
2021/10/15 06:23:30;;;;;;;;;;;;;;;;;;2114723;28;20387;-57
2021/10/15 06:24:31;;;;;;;;;;;;;;;;;;2114702;28;20364;-57
2021/10/15 06:25:32;;;;;;;;;;;;;;;;;;2114577;28;19924;-57
2021/10/15 06:26:33;;;;;;;;;;;;;;;;;;2114628;28;19935;-57
2021/10/15 06:27:34;;;;;;;;;;;;;;;;;;2114551;28;19931;-57
2021/10/15 06:28:34;;;;;;;;;;;;;;;;;;2114546;28;19954;-57
2021/10/15 06:29:35;;;;;;;;;;;;;;;;;;2114571;28;19924;-57
2021/10/15 06:30:36;;;;;;;;;;;;;;;;;;2114498;28;19931;-57
2021/10/15 06:31:37;;;;;;;;;;;;;;;;;;2114554;28;20274;-57
2021/10/15 06:32:38;;;;;;;;;;;;;;;;;;2114548;28;19928;-57
2021/10/15 06:33:39;;;;;;;;;;;;;;;;;;2114735;28;20410;-57
2021/10/15 06:34:40;;;;;;;;;;;;;;;;;;2114584;28;20371;-57
2021/10/15 06:35:40;;;;;;;;;;;;;;;;;;2113993;28;19924;-57
2021/10/15 06:36:41;;;;;;;;;;;;;;;;;;2114481;28;19924;-57
2021/10/15 06:37:42;;;;;;;;;;;;;;;;;;2114640;28;20395;-57
2021/10/15 06:38:43;;;;;;;;;;;;;;;;;;2114697;28;20354;-57
2021/10/15 06:39:44;;;;;;;;;;;;;;;;;;2114697;28;19924;-57
2021/10/15 06:40:46;;;;;;;;;;;;;;;;;;2114473;28;19939;-56
2021/10/15 06:41:46;;;;;;;;;;;;;;;;;;2114531;28;20338;-57
2021/10/15 06:42:47;;;;;;;;;;;;;;;;;;2114400;28;20271;-57
2021/10/15 06:43:48;;;;;;;;;;;;;;;;;;2114419;28;19923;-57
2021/10/15 06:44:49;;;;;;;;;;;;;;;;;;2114593;28;19931;-57
2021/10/15 06:45:49;;;;;;;;;;;;;;;;;;2114394;28;20368;-56
2021/10/15 06:46:52;;;;;;;;;;;;;;;;;;2114535;28;20361;-57
2021/10/15 06:47:53;;;;;;;;;;;;;;;;;;2114429;28;20330;-56
2021/10/15 06:48:54;;;;;;;;;;;;;;;;;;2114560;28;19924;-56
2021/10/15 06:49:54;;;;;;;;;;;;;;;;;;2114459;28;19947;-56
2021/10/15 06:50:55;;;;;;;;;;;;;;;;;;2114362;28;19930;-56
2021/10/15 06:51:56;;;;;;;;;;;;;;;;;;2114498;28;19924;-56
2021/10/15 06:52:57;;;;;;;;;;;;;;;;;;2114439;28;19953;-56
2021/10/15 06:53:58;;;;;;;;;;;;;;;;;;2114721;28;20010;-56
2021/10/15 06:54:59;;;;;;;;;;;;;;;;;;2114322;28;20142;-55
2021/10/15 06:56:00;;;;;;;;;;;;;;;;;;2114440;28;19932;-56
2021/10/15 06:57:02;;;;;;;;;;;;;;;;;;2114319;28;20005;-56
2021/10/15 06:58:03;;;;;;;;;;;;;;;;;;2114591;28;19934;-57
2021/10/15 06:59:04;;;;;;;;;;;;;;;;;;2114356;28;19955;-56
2021/10/15 07:00:05;;;;;;;;;;;;;;;;;;2114516;28;20061;-56
2021/10/15 07:01:06;;;;;;;;;;;;;;;;;;2114181;28;19969;-56
2021/10/15 07:02:07;;;;;;;;;;;;;;;;;;2114588;28;19931;-56
2021/10/15 07:03:08;;;;;;;;;;;;;;;;;;2114520;28;19924;-57
2021/10/15 07:04:08;;;;;;;;;;;;;;;;;;2114824;28;20328;-56
2021/10/15 07:05:09;;;;;;;;;;;;;;;;;;2114416;28;20360;-56
2021/10/15 07:06:10;;;;;;;;;;;;;;;;;;2114442;28;19924;-56
2021/10/15 07:07:11;;;;;;;;;;;;;;;;;;2114140;28;19923;-57
2021/10/15 07:08:11;;;;;;;;;;;;;;;;;;2114544;28;19932;-56
2021/10/15 07:09:13;;;;;;;;;;;;;;;;;;2114448;28;19928;-57
2021/10/15 07:10:14;;;;;;;;;;;;;;;;;;2114560;28;19931;-56